Time;durP1;ratioP1;P1;durP2;ratioP2;P2;SDS_P1;SDS_P2;PMS_P1;PMS_P2;Temp;Humidity;BMP_temperature;BMP_pressure;BME280_temperature;BME280_humidity;BME280_pressure;Samples;Min_cycle;Max_cycle;Signal;HPM_P1;HPM_P2
2020/12/10 00:00:27;;;;;;;10.70;7.47;;;11.80;45.40;;;;;;5078616;28;20493;-84
2020/12/10 00:02:54;;;;;;;14.80;7.60;;;12.00;44.50;;;;;;5077464;28;20467;-85
2020/12/10 00:05:21;;;;;;;11.23;7.10;;;12.00;43.00;;;;;;5077430;28;20461;-84
2020/12/10 00:07:49;;;;;;;12.03;7.97;;;11.80;43.70;;;;;;5077496;28;20447;-85
2020/12/10 00:10:16;;;;;;;14.10;9.17;;;11.60;43.90;;;;;;5077661;28;20776;-84
2020/12/10 00:12:43;;;;;;;15.20;9.20;;;11.80;44.80;;;;;;5077330;28;20453;-85
2020/12/10 00:15:10;;;;;;;16.03;9.90;;;11.80;44.10;;;;;;5077201;28;20534;-85
2020/12/10 00:17:37;;;;;;;17.03;9.93;;;12.00;43.40;;;;;;5078031;28;20492;-84
2020/12/10 00:20:05;;;;;;;12.03;8.20;;;11.90;43.30;;;;;;5078400;28;20446;-84
2020/12/10 00:22:33;;;;;;;13.67;8.90;;;11.90;43.90;;;;;;5078024;28;20544;-85
2020/12/10 00:25:01;;;;;;;14.87;9.40;;;12.00;43.00;;;;;;5077011;28;20513;-84
2020/12/10 00:27:28;;;;;;;16.33;9.80;;;11.90;42.70;;;;;;5077111;28;20448;-84
2020/12/10 00:29:57;;;;;;;15.80;8.83;;;12.00;43.40;;;;;;5077696;28;20444;-84
2020/12/10 00:32:24;;;;;;;15.63;8.90;;;12.00;43.20;;;;;;5077381;28;20474;-84
2020/12/10 00:34:50;;;;;;;16.50;10.13;;;12.10;43.60;;;;;;5077358;28;20486;-85
2020/12/10 00:37:17;;;;;;;14.63;9.63;;;12.00;42.60;;;;;;5077282;28;20477;-85
2020/12/10 00:39:43;;;;;;;16.30;10.03;;;11.90;41.90;;;;;;5076859;28;20448;-84
2020/12/10 00:42:11;;;;;;;15.83;10.07;;;11.80;42.70;;;;;;5079532;28;20863;-84
2020/12/10 00:44:37;;;;;;;13.10;9.07;;;11.80;43.30;;;;;;5077645;28;20502;-84
2020/12/10 00:47:04;;;;;;;18.40;9.60;;;11.80;43.60;;;;;;5077143;28;20448;-84
2020/12/10 00:49:30;;;;;;;14.50;9.30;;;11.90;43.00;;;;;;5076505;28;20435;-85
2020/12/10 00:51:57;;;;;;;11.40;7.97;;;12.00;44.40;;;;;;5076663;28;20440;-84
2020/12/10 00:54:23;;;;;;;10.00;7.20;;;12.30;44.20;;;;;;5076487;28;20538;-84
2020/12/10 00:56:50;;;;;;;12.77;9.30;;;12.50;44.20;;;;;;5076611;28;20445;-84
2020/12/10 00:59:17;;;;;;;15.43;9.60;;;12.50;44.00;;;;;;5093523;28;20819;-84
2020/12/10 01:01:45;;;;;;;13.10;8.57;;;12.60;42.80;;;;;;5096524;28;20885;-84
2020/12/10 01:04:13;;;;;;;13.73;9.03;;;12.60;43.40;;;;;;5096097;28;20458;-84
2020/12/10 01:06:40;;;;;;;10.67;7.67;;;12.60;42.90;;;;;;5081944;28;20457;-84
2020/12/10 01:09:07;;;;;;;11.20;7.87;;;12.60;43.10;;;;;;5078469;28;20497;-84
2020/12/10 01:11:35;;;;;;;17.67;10.40;;;12.30;42.10;;;;;;5078222;28;20792;-84
2020/12/10 01:14:02;;;;;;;13.77;8.60;;;12.20;44.60;;;;;;5078378;28;21012;-83
2020/12/10 01:16:29;;;;;;;13.80;7.77;;;12.10;44.00;;;;;;5077557;28;20489;-84
2020/12/10 01:18:56;;;;;;;11.93;8.00;;;12.20;43.90;;;;;;5077868;28;20499;-83
2020/12/10 01:21:30;;;;;;;16.50;10.70;;;12.20;44.10;;;;;;5077476;28;20489;-84
2020/12/10 01:23:57;;;;;;;18.70;8.90;;;12.40;44.00;;;;;;5077396;28;20481;-84
2020/12/10 01:26:24;;;;;;;12.50;8.00;;;12.40;43.90;;;;;;5077404;28;20435;-84
2020/12/10 01:28:52;;;;;;;13.23;8.20;;;12.50;44.00;;;;;;5077456;28;20778;-84
2020/12/10 01:31:19;;;;;;;13.63;8.30;;;12.60;44.00;;;;;;5091284;28;20442;-84
2020/12/10 01:33:46;;;;;;;13.57;9.33;;;12.70;43.70;;;;;;5097309;28;20455;-84
2020/12/10 01:36:19;;;;;;;15.90;9.97;;;12.50;42.50;;;;;;5091677;28;20549;-84
2020/12/10 01:38:46;;;;;;;13.50;9.00;;;12.30;42.80;;;;;;5078211;28;20492;-84
2020/12/10 01:41:12;;;;;;;14.03;9.70;;;12.20;42.50;;;;;;5077484;28;20785;-84
2020/12/10 01:43:39;;;;;;;22.37;10.23;;;12.10;41.90;;;;;;5077315;28;20475;-84
2020/12/10 01:46:06;;;;;;;15.17;9.50;;;12.00;43.10;;;;;;5077633;28;20847;-84
2020/12/10 01:48:33;;;;;;;14.67;10.27;;;11.80;43.20;;;;;;5077444;28;20433;-84
2020/12/10 01:51:01;;;;;;;15.73;9.50;;;11.60;42.80;;;;;;5076496;28;20440;-84
2020/12/10 01:53:28;;;;;;;21.87;10.80;;;11.60;43.30;;;;;;5077139;28;20494;-83
2020/12/10 01:55:54;;;;;;;17.47;11.00;;;11.70;42.70;;;;;;5077879;28;21041;-84
2020/12/10 01:58:21;;;;;;;13.23;9.20;;;11.60;42.20;;;;;;5077388;28;20447;-84
2020/12/10 02:00:47;;;;;;;14.40;10.13;;;11.50;43.60;;;;;;5076356;28;20462;-84
2020/12/10 02:03:14;;;;;;;15.20;10.23;;;11.40;43.50;;;;;;5076195;28;20873;-84
2020/12/10 02:05:45;;;;;;;12.37;9.30;;;11.60;44.20;;;;;;5076186;28;20500;-84
2020/12/10 02:08:12;;;;;;;15.07;9.37;;;11.70;43.60;;;;;;5075966;28;20442;-84
2020/12/10 02:10:39;;;;;;;14.70;9.60;;;11.80;43.20;;;;;;5075865;28;20929;-84
2020/12/10 02:13:05;;;;;;;16.17;11.03;;;11.80;43.40;;;;;;5076557;28;20464;-84
2020/12/10 02:15:33;;;;;;;15.83;9.20;;;11.80;43.00;;;;;;5075808;28;20529;-84
2020/12/10 02:18:01;;;;;;;14.00;9.30;;;11.90;43.50;;;;;;5074900;28;20454;-84
2020/12/10 02:20:28;;;;;;;15.20;9.77;;;11.70;42.80;;;;;;5076000;28;20923;-84
2020/12/10 02:22:59;;;;;;;17.93;10.70;;;11.60;43.20;;;;;;5075393;28;20466;-84
2020/12/10 02:25:26;;;;;;;17.40;9.97;;;11.30;42.90;;;;;;5075568;28;20544;-84
2020/12/10 02:27:52;;;;;;;15.87;9.27;;;11.30;44.90;;;;;;5075541;28;20539;-84
2020/12/10 02:30:19;;;;;;;14.57;10.20;;;11.40;43.80;;;;;;5074984;28;20543;-84
2020/12/10 02:32:45;;;;;;;15.33;9.40;;;10.80;43.60;;;;;;5075226;28;20468;-84
2020/12/10 02:35:12;;;;;;;15.03;9.70;;;10.90;44.80;;;;;;5075016;28;20475;-84
2020/12/10 02:37:38;;;;;;;16.27;10.87;;;11.10;44.10;;;;;;5074848;28;20439;-84
2020/12/10 02:40:06;;;;;;;14.30;10.03;;;10.90;40.60;;;;;;5075140;28;20960;-84
2020/12/10 02:42:33;;;;;;;15.00;10.00;;;10.30;43.60;;;;;;5074916;28;20478;-84
2020/12/10 02:44:59;;;;;;;15.73;10.73;;;10.40;45.40;;;;;;5075227;28;20877;-84
2020/12/10 02:50:48;;;;;;;14.40;9.40;;;10.00;43.90;;;;;;5075336;28;20399;-84
2020/12/10 02:53:14;;;;;;;17.70;11.57;;;10.20;45.00;;;;;;5074802;28;20465;-84
2020/12/10 02:55:41;;;;;;;17.00;10.27;;;10.60;45.80;;;;;;5074667;28;20541;-84
2020/12/10 02:58:08;;;;;;;15.67;10.53;;;10.60;44.70;;;;;;5074390;28;20592;-84
2020/12/10 03:00:34;;;;;;;18.37;11.73;;;11.00;46.60;;;;;;5075045;28;20830;-84
2020/12/10 03:03:01;;;;;;;19.67;11.30;;;11.10;43.60;;;;;;5074283;28;20486;-84
2020/12/10 03:05:27;;;;;;;17.60;10.93;;;11.10;43.00;;;;;;5074211;28;20523;-84
2020/12/10 03:07:56;;;;;;;18.63;11.70;;;11.00;43.50;;;;;;5073796;28;20490;-84
2020/12/10 03:10:23;;;;;;;19.73;11.70;;;10.90;40.70;;;;;;5074243;28;20443;-84
2020/12/10 03:12:50;;;;;;;15.80;9.40;;;10.00;40.60;;;;;;5074621;28;20581;-84
2020/12/10 03:15:32;;;;;;;16.17;10.93;;;10.00;46.20;;;;;;5073975;28;20638;-84
2020/12/10 03:17:59;;;;;;;17.07;9.80;;;10.20;43.80;;;;;;5074374;28;20794;-84
2020/12/10 03:20:26;;;;;;;19.80;12.27;;;9.80;45.00;;;;;;5074721;28;20483;-84
2020/12/10 03:22:54;;;;;;;18.03;11.10;;;9.70;46.60;;;;;;5077348;28;20525;-84
2020/12/10 03:28:44;;;;;;;16.57;11.43;;;10.70;45.90;;;;;;5073975;28;20817;-84
2020/12/10 03:34:33;;;;;;;18.37;11.90;;;10.70;45.40;;;;;;5073903;28;20880;-84
2020/12/10 03:37:00;;;;;;;17.90;11.70;;;10.60;43.10;;;;;;5073210;28;20444;-84
2020/12/10 03:39:29;;;;;;;15.77;10.77;;;9.70;43.70;;;;;;5073826;28;20456;-84
2020/12/10 03:41:56;;;;;;;16.17;10.57;;;9.80;46.60;;;;;;5073452;28;20443;-84
2020/12/10 03:44:24;;;;;;;16.87;10.10;;;9.90;44.80;;;;;;5073732;28;20805;-84
2020/12/10 03:46:50;;;;;;;20.50;11.80;;;9.90;47.60;;;;;;5075989;28;20503;-84
2020/12/10 03:49:17;;;;;;;22.40;12.77;;;10.30;45.20;;;;;;5076821;28;20497;-83
2020/12/10 03:51:44;;;;;;;28.00;15.43;;;10.10;42.10;;;;;;5079325;28;20446;-84
2020/12/10 03:54:10;;;;;;;22.70;13.27;;;9.30;43.50;;;;;;5090387;28;20447;-84
2020/12/10 03:56:37;;;;;;;22.20;13.13;;;8.60;44.30;;;;;;5088329;28;20506;-84
2020/12/10 03:59:04;;;;;;;21.07;11.83;;;8.00;45.80;;;;;;5088878;28;20466;-84
2020/12/10 04:01:32;;;;;;;14.30;9.63;;;8.50;49.20;;;;;;5077281;28;20443;-84
2020/12/10 04:03:58;;;;;;;25.70;14.33;;;8.70;49.40;;;;;;5073095;28;20479;-84
2020/12/10 04:06:25;;;;;;;28.23;15.67;;;8.90;45.60;;;;;;5073457;28;20435;-84
2020/12/10 04:08:52;;;;;;;26.07;15.10;;;8.20;45.20;;;;;;5074597;28;20454;-83
2020/12/10 04:11:19;;;;;;;22.50;12.90;;;8.20;46.60;;;;;;5072304;28;20440;-84
2020/12/10 04:13:45;;;;;;;26.27;16.10;;;8.20;47.20;;;;;;5073724;28;20554;-84
2020/12/10 04:16:12;;;;;;;48.13;14.37;;;8.60;49.00;;;;;;5073322;28;20505;-84
2020/12/10 04:18:41;;;;;;;79.40;15.70;;;8.20;45.70;;;;;;5073265;28;20526;-84
2020/12/10 04:21:09;;;;;;;48.00;15.70;;;8.30;46.90;;;;;;5073355;28;20492;-84
2020/12/10 04:23:36;;;;;;;35.23;15.60;;;7.60;47.00;;;;;;5072889;28;20482;-84
2020/12/10 04:26:03;;;;;;;29.97;16.70;;;7.20;48.20;;;;;;5073117;28;20438;-84
2020/12/10 04:28:29;;;;;;;20.93;11.23;;;7.20;49.00;;;;;;5073919;28;20501;-84
2020/12/10 04:30:56;;;;;;;25.80;14.80;;;7.70;50.40;;;;;;5075192;28;20475;-83
2020/12/10 04:33:23;;;;;;;54.20;17.83;;;8.40;50.20;;;;;;5077886;28;20515;-84
2020/12/10 04:35:50;;;;;;;47.23;18.27;;;9.10;48.60;;;;;;5075849;28;20528;-84
2020/12/10 04:38:17;;;;;;;28.63;17.43;;;9.40;45.70;;;;;;5074751;28;20467;-84
2020/12/10 04:40:44;;;;;;;70.63;20.37;;;9.40;49.10;;;;;;5073860;28;20958;-84
2020/12/10 04:43:12;;;;;;;62.60;17.17;;;9.00;45.50;;;;;;5077219;28;20866;-84
2020/12/10 04:45:39;;;;;;;37.87;16.10;;;8.20;45.50;;;;;;5076920;28;20443;-84
2020/12/10 04:48:05;;;;;;;41.73;21.90;;;7.40;49.10;;;;;;5076513;28;20901;-84
2020/12/10 04:50:35;;;;;;;86.83;19.57;;;7.30;48.30;;;;;;5077204;28;20470;-84
2020/12/10 04:53:03;;;;;;;125.67;20.17;;;6.80;49.20;;;;;;5076962;28;20467;-84
2020/12/10 04:55:30;;;;;;;76.67;20.63;;;5.90;51.10;;;;;;5076766;28;20486;-84
2020/12/10 04:57:59;;;;;;;59.33;22.60;;;5.50;53.10;;;;;;5076853;28;20450;-84
2020/12/10 05:00:26;;;;;;;85.10;23.00;;;5.90;52.50;;;;;;5076608;28;20488;-84
2020/12/10 05:02:53;;;;;;;106.33;23.67;;;6.20;51.90;;;;;;5076068;28;20466;-84
2020/12/10 05:05:24;;;;;;;55.03;22.87;;;6.40;51.10;;;;;;5075916;28;20446;-84
2020/12/10 05:07:50;;;;;;;49.43;22.40;;;7.10;52.00;;;;;;5075733;28;20484;-84
2020/12/10 05:10:18;;;;;;;121.00;24.40;;;7.20;49.10;;;;;;5076251;28;20478;-84
2020/12/10 05:12:45;;;;;;;102.73;27.03;;;7.10;49.10;;;;;;5075450;28;20467;-84
2020/12/10 05:15:12;;;;;;;120.07;26.70;;;6.20;52.00;;;;;;5075520;28;21026;-83
2020/12/10 05:17:38;;;;;;;110.67;29.20;;;5.80;51.60;;;;;;5075581;28;20440;-83
2020/12/10 05:20:06;;;;;;;90.93;28.03;;;5.00;54.10;;;;;;5075987;28;20523;-83
2020/12/10 05:22:33;;;;;;;63.17;31.07;;;4.70;55.30;;;;;;5076976;28;20527;-84
2020/12/10 05:25:01;;;;;;;59.20;28.03;;;4.50;56.40;;;;;;5075817;28;20533;-84
2020/12/10 05:27:30;;;;;;;58.27;28.87;;;4.80;55.80;;;;;;5075999;28;20854;-83
2020/12/10 05:29:56;;;;;;;63.00;30.37;;;4.80;55.50;;;;;;5077707;28;20468;-83
2020/12/10 05:32:40;;;;;;;67.33;31.90;;;4.90;55.00;;;;;;5084094;28;20463;-83
2020/12/10 05:35:21;;;;;;;70.43;31.47;;;4.60;55.30;;;;;;5094994;28;20477;-83
2020/12/10 05:37:49;;;;;;;59.07;27.83;;;4.40;56.20;;;;;;5094295;28;20452;-85
2020/12/10 05:40:16;;;;;;;65.27;30.20;;;4.60;58.50;;;;;;5082273;28;20457;-84
2020/12/10 05:42:45;;;;;;;73.90;30.47;;;5.50;56.10;;;;;;5077285;28;20478;-84
2020/12/10 05:45:13;;;;;;;62.20;29.93;;;5.70;53.70;;;;;;5090280;28;20453;-84
2020/12/10 05:47:46;;;;;;;62.47;29.47;;;5.70;53.60;;;;;;5095632;28;20457;-84
2020/12/10 05:50:14;;;;;;;60.70;29.20;;;5.30;53.60;;;;;;5096967;28;20425;-84
2020/12/10 05:52:53;;;;;;;67.33;31.80;;;4.50;54.90;;;;;;5096929;28;20842;-84
2020/12/10 05:55:19;;;;;;;81.63;38.00;;;4.00;56.80;;;;;;5096783;28;20465;-84
2020/12/10 05:57:48;;;;;;;78.20;37.70;;;3.90;57.10;;;;;;5096611;28;20421;-84
2020/12/10 06:00:15;;;;;;;61.70;29.77;;;3.70;58.10;;;;;;5086130;28;20456;-84
2020/12/10 06:02:41;;;;;;;71.60;34.70;;;4.00;58.10;;;;;;5081813;28;20934;-84
2020/12/10 06:05:09;;;;;;;67.23;30.47;;;4.10;57.30;;;;;;5076633;28;20937;-84
2020/12/10 06:07:36;;;;;;;60.07;28.53;;;4.60;56.90;;;;;;5077968;28;20449;-84
2020/12/10 06:10:03;;;;;;;66.50;30.60;;;5.90;55.90;;;;;;5076740;28;20519;-84
2020/12/10 06:12:29;;;;;;;68.40;31.20;;;5.40;53.10;;;;;;5075605;28;20503;-84
2020/12/10 06:14:59;;;;;;;71.43;31.90;;;5.20;53.60;;;;;;5076019;28;20498;-84
2020/12/10 06:17:26;;;;;;;68.43;30.47;;;5.20;54.00;;;;;;5075865;28;20436;-84
2020/12/10 06:19:52;;;;;;;72.10;32.50;;;4.70;55.40;;;;;;5076634;28;20815;-84
2020/12/10 06:22:26;;;;;;;89.00;35.50;;;4.40;56.30;;;;;;5075861;28;20526;-84
2020/12/10 06:24:54;;;;;;;71.40;32.57;;;4.60;56.90;;;;;;5076121;28;20429;-83
2020/12/10 06:27:25;;;;;;;86.30;36.50;;;4.20;56.10;;;;;;5075536;28;20448;-83
2020/12/10 06:30:15;;;;;;;82.07;38.10;;;4.10;57.60;;;;;;5076168;28;20435;-83
2020/12/10 06:32:43;;;;;;;83.47;32.40;;;4.20;57.40;;;;;;5075416;28;20446;-83
2020/12/10 06:35:33;;;;;;;77.73;33.60;;;4.40;57.20;;;;;;5075402;28;20855;-83
2020/12/10 06:38:00;;;;;;;76.30;33.77;;;4.90;56.10;;;;;;5075644;28;20519;-83
2020/12/10 06:40:35;;;;;;;78.07;32.87;;;4.60;55.30;;;;;;5076043;28;20487;-83
2020/12/10 06:43:03;;;;;;;87.03;32.33;;;4.70;56.20;;;;;;5075359;28;20453;-84
2020/12/10 06:45:36;;;;;;;91.97;36.10;;;5.30;54.40;;;;;;5075426;28;20444;-84
2020/12/10 06:48:04;;;;;;;84.33;34.87;;;5.50;53.30;;;;;;5075501;28;20567;-84
2020/12/10 06:50:32;;;;;;;80.07;32.17;;;4.90;54.80;;;;;;5075914;28;20443;-83
2020/12/10 06:53:11;;;;;;;96.77;39.93;;;4.50;55.90;;;;;;5079806;28;20476;-84
2020/12/10 06:56:10;;;;;;;87.87;35.40;;;3.80;58.30;;;;;;5078509;28;20581;-83
2020/12/10 06:58:58;;;;;;;85.43;35.43;;;4.00;57.50;;;;;;5079673;28;20461;-83
2020/12/10 07:01:27;;;;;;;99.10;39.20;;;4.00;58.90;;;;;;5084492;28;20484;-82
2020/12/10 07:04:08;;;;;;;85.97;34.60;;;4.30;57.20;;;;;;5095577;28;20462;-82
2020/12/10 07:06:34;;;;;;;95.50;35.80;;;4.10;58.00;;;;;;5095768;28;20462;-81
2020/12/10 07:09:03;;;;;;;89.03;36.20;;;4.30;57.60;;;;;;5093345;28;20424;-83
2020/12/10 07:11:32;;;;;;;100.73;42.40;;;5.20;56.90;;;;;;5078988;28;20448;-83
2020/12/10 07:13:59;;;;;;;80.93;34.33;;;6.00;54.80;;;;;;5074966;28;20456;-83
2020/12/10 07:16:33;;;;;;;84.70;32.70;;;5.50;53.00;;;;;;5074842;28;20837;-83
2020/12/10 07:18:59;;;;;;;96.73;37.63;;;5.60;53.80;;;;;;5074778;28;20456;-83
2020/12/10 07:21:26;;;;;;;90.93;36.07;;;5.10;54.20;;;;;;5074465;28;20485;-83
2020/12/10 07:23:53;;;;;;;89.60;36.30;;;5.00;55.50;;;;;;5074307;28;20479;-83
2020/12/10 07:26:19;;;;;;;83.10;33.67;;;4.90;55.10;;;;;;5074465;28;20469;-83
2020/12/10 07:28:47;;;;;;;91.03;34.50;;;5.20;54.80;;;;;;5074414;28;20535;-83
2020/12/10 07:31:18;;;;;;;94.53;35.10;;;5.00;54.90;;;;;;5074296;28;20461;-83
2020/12/10 07:33:45;;;;;;;103.93;38.20;;;4.80;55.30;;;;;;5074396;28;20464;-83
2020/12/10 07:36:12;;;;;;;92.80;35.80;;;4.40;56.30;;;;;;5074730;28;20556;-83
2020/12/10 07:38:45;;;;;;;98.43;35.93;;;4.50;56.50;;;;;;5074979;28;20438;-82
2020/12/10 07:41:11;;;;;;;69.83;28.00;;;4.90;56.50;;;;;;5074087;28;20913;-83
2020/12/10 07:43:45;;;;;;;91.07;35.07;;;5.70;56.20;;;;;;5073579;28;20970;-83
2020/12/10 07:46:12;;;;;;;99.00;36.60;;;6.30;53.20;;;;;;5076070;28;20451;-83
2020/12/10 07:48:39;;;;;;;87.40;32.77;;;6.80;52.60;;;;;;5075816;28;20441;-84
2020/12/10 07:51:07;;;;;;;89.13;35.80;;;6.30;53.20;;;;;;5076474;28;20451;-83
2020/12/10 07:53:34;;;;;;;90.30;34.53;;;6.50;52.00;;;;;;5081068;28;20494;-84
2020/12/10 07:56:03;;;;;;;87.07;34.93;;;6.70;51.30;;;;;;5081224;28;20473;-84
2020/12/10 07:58:38;;;;;;;87.30;36.00;;;6.70;50.60;;;;;;5082622;28;20503;-85
2020/12/10 08:01:06;;;;;;;91.30;36.63;;;6.40;51.00;;;;;;5081837;28;20445;-85
2020/12/10 08:03:54;;;;;;;88.20;33.10;;;6.40;51.20;;;;;;5079946;28;20504;-85
2020/12/10 08:06:22;;;;;;;82.10;32.03;;;5.80;51.30;;;;;;5079334;28;20476;-84
2020/12/10 08:08:54;;;;;;;91.80;35.97;;;5.00;53.20;;;;;;5078171;28;20433;-84
2020/12/10 08:11:21;;;;;;;86.77;33.67;;;4.90;54.80;;;;;;5079464;28;20435;-84
2020/12/10 08:13:55;;;;;;;90.60;37.03;;;5.30;53.60;;;;;;5076305;28;20460;-84
2020/12/10 08:16:22;;;;;;;89.33;35.90;;;5.50;53.60;;;;;;5074681;28;20512;-84
2020/12/10 08:18:48;;;;;;;82.97;34.90;;;5.60;53.10;;;;;;5077123;28;20446;-84
2020/12/10 08:21:32;;;;;;;93.70;37.67;;;5.90;53.40;;;;;;5078416;28;20495;-85
2020/12/10 08:23:58;;;;;;;88.63;34.37;;;5.40;53.50;;;;;;5079261;28;20949;-84
2020/12/10 08:26:25;;;;;;;81.57;32.97;;;5.00;54.50;;;;;;5078318;28;20465;-84
2020/12/10 08:28:53;;;;;;;57.07;25.07;;;5.00;55.70;;;;;;5077246;28;20461;-84
2020/12/10 08:31:21;;;;;;;89.67;37.40;;;5.30;56.60;;;;;;5078560;28;20449;-84
2020/12/10 08:33:47;;;;;;;82.23;34.40;;;5.90;53.90;;;;;;5078209;28;20533;-84
2020/12/10 08:36:25;;;;;;;91.77;37.50;;;6.30;52.70;;;;;;5078902;28;21084;-83
2020/12/10 08:38:53;;;;;;;88.13;37.00;;;6.80;51.70;;;;;;5077540;28;20550;-84
2020/12/10 08:41:27;;;;;;;87.70;35.40;;;6.50;51.30;;;;;;5078524;28;20460;-84
2020/12/10 08:43:55;;;;;;;81.90;32.90;;;6.40;50.80;;;;;;5079286;28;20465;-84
2020/12/10 08:46:22;;;;;;;100.07;36.97;;;5.50;51.90;;;;;;5077918;28;20442;-84
2020/12/10 08:48:49;;;;;;;79.83;32.70;;;4.80;54.40;;;;;;5077048;28;20546;-84
2020/12/10 08:51:15;;;;;;;76.53;32.20;;;5.30;56.30;;;;;;5076826;28;20526;-84
2020/12/10 08:53:50;;;;;;;94.90;38.50;;;5.80;54.10;;;;;;5082668;28;20526;-85
2020/12/10 08:56:21;;;;;;;75.27;33.37;;;6.10;52.70;;;;;;5090328;28;20472;-84
2020/12/10 08:58:48;;;;;;;83.40;32.23;;;5.80;54.50;;;;;;5079034;28;20440;-84
2020/12/10 09:01:15;;;;;;;84.40;36.37;;;6.00;51.50;;;;;;5077158;28;20449;-84
2020/12/10 09:03:45;;;;;;;77.80;34.67;;;5.40;53.70;;;;;;5076626;28;20845;-84
2020/12/10 09:06:13;;;;;;;90.63;34.90;;;5.70;52.60;;;;;;5077131;28;20425;-83
2020/12/10 09:08:40;;;;;;;88.53;33.33;;;4.80;53.50;;;;;;5078660;28;20461;-84
2020/12/10 09:11:08;;;;;;;75.13;32.87;;;4.10;56.30;;;;;;5077559;28;20500;-84
2020/12/10 09:13:35;;;;;;;79.33;33.70;;;4.40;56.80;;;;;;5076964;28;20466;-84
2020/12/10 09:16:02;;;;;;;81.10;35.13;;;5.20;55.30;;;;;;5076843;28;20565;-84
2020/12/10 09:18:28;;;;;;;72.93;32.93;;;5.50;53.30;;;;;;5076324;28;20450;-84
2020/12/10 09:20:55;;;;;;;78.13;31.50;;;5.10;53.60;;;;;;5075957;28;20440;-84
2020/12/10 09:23:22;;;;;;;63.37;27.50;;;5.40;53.50;;;;;;5076076;28;20504;-84
2020/12/10 09:25:48;;;;;;;76.90;31.97;;;5.30;54.00;;;;;;5076197;28;20434;-84
2020/12/10 09:28:16;;;;;;;73.87;31.57;;;5.20;54.10;;;;;;5076125;28;20528;-84
2020/12/10 09:30:43;;;;;;;65.73;28.70;;;5.40;53.80;;;;;;5076118;28;20450;-84
2020/12/10 09:33:10;;;;;;;81.77;34.90;;;5.80;53.80;;;;;;5075939;28;20469;-84
2020/12/10 09:35:37;;;;;;;80.97;32.77;;;6.00;51.70;;;;;;5075804;28;20481;-85
2020/12/10 09:38:05;;;;;;;82.57;34.23;;;5.80;52.40;;;;;;5076258;28;20436;-84
2020/12/10 09:40:32;;;;;;;83.70;34.37;;;5.70;52.30;;;;;;5076194;28;20593;-83
2020/12/10 09:42:58;;;;;;;77.60;31.60;;;5.90;53.20;;;;;;5076859;28;20473;-83
2020/12/10 09:45:25;;;;;;;89.73;35.83;;;5.70;52.20;;;;;;5077332;28;20844;-83
2020/12/10 09:47:53;;;;;;;85.10;35.00;;;5.40;53.60;;;;;;5077111;28;20451;-83
2020/12/10 09:50:23;;;;;;;75.77;31.40;;;5.50;53.00;;;;;;5076189;28;20443;-83
2020/12/10 09:58:17;;;;;;;62.83;29.07;;;6.20;51.70;;;;;;5069558;28;20457;-83
2020/12/10 10:00:48;;;;;;;73.63;32.97;;;6.20;51.90;;;;;;5077668;28;20489;-83
2020/12/10 10:03:16;;;;;;;78.13;35.50;;;6.10;50.70;;;;;;5084139;28;20498;-83
2020/12/10 10:05:43;;;;;;;72.80;31.80;;;6.00;51.10;;;;;;5095915;28;20430;-83
2020/12/10 10:08:09;;;;;;;75.20;33.40;;;6.20;51.50;;;;;;5096855;28;20446;-83
2020/12/10 10:10:36;;;;;;;82.60;35.63;;;6.30;51.00;;;;;;5096764;28;20465;-83
2020/12/10 10:13:03;;;;;;;77.20;32.50;;;6.30;50.60;;;;;;5095448;28;20449;-83
2020/12/10 10:15:29;;;;;;;79.83;34.17;;;6.10;51.00;;;;;;5094171;28;20446;-83
2020/12/10 10:17:56;;;;;;;75.87;36.10;;;6.00;51.30;;;;;;5092808;28;20447;-83
2020/12/10 10:20:23;;;;;;;82.03;38.50;;;6.20;51.70;;;;;;5084367;28;20571;-83
2020/12/10 10:22:49;;;;;;;77.30;34.00;;;6.60;50.30;;;;;;5079818;28;20520;-83
2020/12/10 10:25:16;;;;;;;80.80;34.67;;;6.60;50.30;;;;;;5092052;28;20453;-84
2020/12/10 10:27:45;;;;;;;77.10;34.00;;;6.50;50.60;;;;;;5093116;28;20454;-84
2020/12/10 10:30:11;;;;;;;74.40;32.60;;;6.30;50.70;;;;;;5077421;28;20529;-84
2020/12/10 10:32:38;;;;;;;70.83;34.23;;;5.90;51.30;;;;;;5076175;28;20470;-84
2020/12/10 10:35:04;;;;;;;67.27;31.27;;;5.80;52.30;;;;;;5075945;28;20912;-84
2020/12/10 10:37:32;;;;;;;77.97;31.37;;;5.90;51.70;;;;;;5075458;28;20486;-84
2020/12/10 10:39:58;;;;;;;68.33;33.07;;;6.20;51.20;;;;;;5075033;28;20415;-84
2020/12/10 10:42:25;;;;;;;58.53;29.17;;;6.40;50.50;;;;;;5075484;28;20459;-83
2020/12/10 10:44:51;;;;;;;68.60;30.53;;;6.80;51.60;;;;;;5076604;28;20442;-83
2020/12/10 10:47:18;;;;;;;76.03;33.20;;;7.50;50.90;;;;;;5077315;28;20470;-83
2020/12/10 10:49:44;;;;;;;78.73;34.67;;;7.70;49.40;;;;;;5075550;28;20443;-83
2020/12/10 10:52:11;;;;;;;72.10;32.43;;;7.50;48.40;;;;;;5075011;28;20495;-83
2020/12/10 10:54:38;;;;;;;68.13;31.50;;;7.50;48.40;;;;;;5076236;28;20446;-83
2020/12/10 10:57:05;;;;;;;73.50;32.20;;;7.70;49.70;;;;;;5075399;28;20479;-83
2020/12/10 10:59:31;;;;;;;75.67;33.00;;;7.60;48.50;;;;;;5075073;28;20447;-84
2020/12/10 11:02:01;;;;;;;77.83;33.90;;;7.30;48.30;;;;;;5076517;28;20523;-84
2020/12/10 11:04:27;;;;;;;69.67;30.87;;;7.10;49.10;;;;;;5076247;28;20444;-84
2020/12/10 11:06:54;;;;;;;69.87;32.70;;;7.00;49.00;;;;;;5074850;28;20777;-84
2020/12/10 11:09:20;;;;;;;79.47;33.57;;;7.20;49.20;;;;;;5075162;28;20436;-84
2020/12/10 11:11:48;;;;;;;65.13;29.57;;;7.70;48.60;;;;;;5074764;28;20439;-84
2020/12/10 11:14:14;;;;;;;72.33;30.57;;;7.50;48.00;;;;;;5075040;28;20443;-84
2020/12/10 11:16:41;;;;;;;62.33;28.50;;;7.70;48.60;;;;;;5074084;28;21000;-84
2020/12/10 11:19:07;;;;;;;72.80;32.23;;;7.70;48.60;;;;;;5074542;28;20467;-84
2020/12/10 11:21:34;;;;;;;57.10;28.40;;;7.70;48.60;;;;;;5074831;28;20432;-84
2020/12/10 11:24:00;;;;;;;65.37;28.93;;;7.70;48.60;;;;;;5074915;28;20925;-83
2020/12/10 11:26:27;;;;;;;67.93;30.67;;;7.70;49.30;;;;;;5075375;28;20451;-83
2020/12/10 11:28:54;;;;;;;62.63;26.97;;;8.30;49.00;;;;;;5075377;28;20477;-83
2020/12/10 11:31:20;;;;;;;72.23;31.30;;;8.80;49.50;;;;;;5075056;28;20436;-83
2020/12/10 11:33:47;;;;;;;60.27;28.00;;;9.10;47.10;;;;;;5074813;28;20475;-83
2020/12/10 11:36:13;;;;;;;61.63;29.87;;;8.90;47.90;;;;;;5075861;28;20537;-83
2020/12/10 11:38:40;;;;;;;58.40;28.83;;;8.80;45.40;;;;;;5075822;28;20435;-83
2020/12/10 11:41:06;;;;;;;62.63;26.47;;;8.40;46.10;;;;;;5076581;28;20500;-83
2020/12/10 11:43:33;;;;;;;65.07;29.00;;;8.20;48.60;;;;;;5084009;28;20498;-83
2020/12/10 11:46:01;;;;;;;63.07;28.80;;;7.70;46.70;;;;;;5089351;28;20467;-83
2020/12/10 11:48:28;;;;;;;46.37;22.53;;;7.60;47.80;;;;;;5088557;28;20444;-83
2020/12/10 11:50:55;;;;;;;63.37;29.37;;;8.00;48.90;;;;;;5087671;28;20485;-83
2020/12/10 11:53:21;;;;;;;74.93;36.87;;;8.30;47.10;;;;;;5080119;28;20503;-83
2020/12/10 11:55:48;;;;;;;62.07;30.20;;;8.00;46.40;;;;;;5074684;28;20443;-83
2020/12/10 11:58:14;;;;;;;68.80;33.43;;;7.90;47.40;;;;;;5075034;28;20953;-83
2020/12/10 12:00:41;;;;;;;59.90;30.50;;;7.80;46.80;;;;;;5075220;28;20459;-83
2020/12/10 12:03:08;;;;;;;55.57;26.30;;;7.80;47.60;;;;;;5076273;28;20538;-83
2020/12/10 12:05:35;;;;;;;60.50;26.93;;;7.90;48.70;;;;;;5076763;28;20447;-82
2020/12/10 12:08:01;;;;;;;56.07;26.43;;;8.10;48.50;;;;;;5077163;28;20443;-83
2020/12/10 12:10:27;;;;;;;60.93;28.93;;;8.80;49.50;;;;;;5077612;28;20435;-83
2020/12/10 12:12:54;;;;;;;70.03;29.73;;;8.90;45.60;;;;;;5076064;28;20554;-83
2020/12/10 12:15:20;;;;;;;59.77;28.17;;;8.30;46.00;;;;;;5075817;28;20439;-83
2020/12/10 12:17:47;;;;;;;63.03;29.33;;;8.20;46.00;;;;;;5077109;28;20505;-82
2020/12/10 12:20:14;;;;;;;66.93;29.97;;;7.70;46.30;;;;;;5076264;28;20440;-82
2020/12/10 12:22:41;;;;;;;63.83;29.00;;;7.60;47.00;;;;;;5076447;28;20550;-82
2020/12/10 12:25:08;;;;;;;59.10;28.83;;;7.40;48.00;;;;;;5075883;28;20797;-82
2020/12/10 12:27:35;;;;;;;56.40;27.93;;;7.40;48.60;;;;;;5074477;28;20459;-82
2020/12/10 12:30:02;;;;;;;75.70;30.53;;;7.70;48.60;;;;;;5075279;28;20446;-83
2020/12/10 12:32:28;;;;;;;69.10;30.67;;;7.90;47.30;;;;;;5074486;28;20495;-83
2020/12/10 12:34:55;;;;;;;60.87;27.30;;;8.10;47.60;;;;;;5076883;28;20927;-82
2020/12/10 12:37:22;;;;;;;66.37;33.07;;;8.10;47.80;;;;;;5076446;28;20479;-83
2020/12/10 12:39:49;;;;;;;51.03;24.80;;;7.60;47.00;;;;;;5074263;28;20455;-83
2020/12/10 12:42:15;;;;;;;61.63;28.70;;;7.40;48.30;;;;;;5073032;28;20466;-83
2020/12/10 12:44:42;;;;;;;66.20;30.33;;;7.90;48.70;;;;;;5073468;28;20431;-82
2020/12/10 12:47:09;;;;;;;63.00;30.63;;;8.00;47.10;;;;;;5072859;28;20448;-83
2020/12/10 12:49:35;;;;;;;75.30;34.00;;;7.70;47.00;;;;;;5072632;28;20441;-82
2020/12/10 12:52:02;;;;;;;62.43;29.60;;;7.50;48.40;;;;;;5072434;28;20476;-82
2020/12/10 12:54:29;;;;;;;61.40;27.63;;;7.60;47.80;;;;;;5072600;28;20494;-83